Monmouth, OR (97361)

3:27 PM PDT on August 30, 2016 (GMT -0700)
Fishback Road | | Change Station

Elev 351 ft 44.84 °N, 123.28 °W | Updated 11 seconds ago

Overcast
Overcast
70.5 °F
Feels Like 76 °F
N
2.5
Wind Variable Wind from South
Gusts 4.9 mph

Today
High -- | Low -- °F
--% Chance of Precip.
Yesterday
High -- | Low -- °F
Precip. -- in
Pressure 30.01 in
Visibility 10.0 miles
Clouds Overcast 4400 ft
Heat Index 76 °F
Dew Point 54 °F
Humidity 56%
Rainfall 0.00 in
Snow Depth Not available.
6:33 AM 7:52 PM
Waning Crescent, 2% visible
METAR KSLE 302156Z 23008KT 10SM OVC044 22/11 A3001 RMK AO2 SLP163 T02170106
Pressure 30.01 in
Visibility 10.0 miles
Clouds Overcast 4400 ft
Heat Index 76 °F
Dew Point 54 °F
Humidity 56%
Rainfall 0.00 in
Snow Depth Not available.
6:33 AM 7:52 PM
Waning Crescent, 2% visible
METAR KSLE 302156Z 23008KT 10SM OVC044 22/11 A3001 RMK AO2 SLP163 T02170106

10-Day Weather Forecast

Almanac

Astronomy

Aug. 30, 2016 Rise Set
Actual Time
Civil Twilight
Nautical Twilight
Astronomical Twilight
Moon
Length of Visible Light
Length of Day
Tomorrow will be .
, % of the Moon is Illuminated

Today's Extremes

State Highs State Lows

Community

WunderPhotos

Upload Photos

1,935,911 photos uploaded!

WunderBlog® & News

Nearby

Air Quality

  Air Quality AQ Index Pollutant
Not available.

Snow Depth

Station Depth Elevation

Earthquake Activity

City Distance Mag. Time & Date
Minimum magnitude displayed is 2.5.

Coastal Water Temperatures

Place Temperature

Stations

Nearby Weather Stations

Station Location Temp. Windchill Dew Point Humidity Wind Precip. Elev Updated Type
                   

Watches & Warnings

There are currently no watches in effect.